Guthrie, Kentucky
Current Conditions -  °F | °C
As of 11:52 PM on Thursday 30 Oct 2014 (Local Time) from KCKV Reporting Station
Light Rain Light Rain  
Wind Chill: 51°   Ceiling: 8500
Heat Index: 51°   Visibility: 10mi
Dew Point: 44°   Wind: 0mph
Humidity: 77%   Direction: NA
Pressure: 30.03"   Gusts: NA
Location:  36.65°N, 87.17°W
Report Text: KCKV 310452Z AUTO 00000KT 10SM -RA SCT065 OVC085 11/07 A3003 RMK AO2 RAB40 SLP169 P0000 T01060067
Loading
Personal Weather Stations






























Interactive Weather Map
Tropical Storm Tracking
New forecast layout! Learn more

10-Day Weather Forecast

Advertisements
Track Severe Weather on mobile